createdAt,value
2019-06-07T00:01:44.388Z,13.50
2019-06-07T00:04:12.040Z,13.60
2019-06-07T00:06:38.460Z,13.60
2019-06-07T00:09:08.147Z,13.60
2019-06-07T00:11:33.821Z,13.60
2019-06-07T00:13:59.892Z,13.50
2019-06-07T00:16:25.978Z,13.50
2019-06-07T00:18:52.053Z,13.50
2019-06-07T00:21:20.463Z,13.40
2019-06-07T00:23:46.128Z,13.50
2019-06-07T00:26:13.322Z,13.40
2019-06-07T00:28:40.299Z,13.40
2019-06-07T00:31:06.372Z,13.30
2019-06-07T00:33:32.517Z,13.30
2019-06-07T00:35:58.711Z,13.20
2019-06-07T00:38:24.864Z,13.20
2019-06-07T00:40:50.954Z,13.10
2019-06-07T00:43:20.384Z,13.10
2019-06-07T00:45:45.454Z,13.10
2019-06-07T00:48:19.670Z,13.00
2019-06-07T00:50:39.764Z,12.90
2019-06-07T00:53:29.824Z,12.90
2019-06-07T00:55:33.824Z,12.90
2019-06-07T00:58:00.013Z,12.90
2019-06-07T01:00:26.283Z,12.90
2019-06-07T01:02:52.476Z,12.80
2019-06-07T01:05:22.584Z,12.80
2019-06-07T01:07:46.659Z,12.80
2019-06-07T01:10:17.365Z,12.70
2019-06-07T01:12:42.944Z,12.70
2019-06-07T01:15:09.721Z,12.70
2019-06-07T01:17:50.084Z,12.70
2019-06-07T01:20:08.371Z,12.60
2019-06-07T01:22:34.435Z,12.50
2019-06-07T01:25:00.531Z,12.10
2019-06-07T01:27:26.604Z,12.20
2019-06-07T01:29:52.709Z,12.20
2019-06-07T01:32:20.659Z,12.10
2019-06-07T01:34:46.865Z,12.10
2019-06-07T01:37:12.946Z,12.10
2019-06-07T01:39:39.029Z,12.10
2019-06-07T01:42:05.224Z,12.00
2019-06-07T01:44:31.590Z,12.00
2019-06-07T01:46:57.760Z,12.00
2019-06-07T01:49:26.627Z,12.00
2019-06-07T01:51:51.828Z,12.10
2019-06-07T01:56:45.884Z,12.10
2019-06-07T01:59:12.155Z,12.00
2019-06-07T02:01:38.239Z,12.00
2019-06-07T02:04:04.329Z,11.90
2019-06-07T02:06:32.202Z,11.90
2019-06-07T02:08:58.488Z,11.80
2019-06-07T02:11:26.621Z,11.70
2019-06-07T02:13:52.551Z,11.60
2019-06-07T02:16:19.357Z,11.60
2019-06-07T02:19:01.213Z,11.60
2019-06-07T02:21:13.653Z,11.50
2019-06-07T02:23:39.756Z,11.50
2019-06-07T02:26:05.975Z,11.50
2019-06-07T02:28:44.702Z,11.40
2019-06-07T02:31:00.813Z,11.40
2019-06-07T02:33:31.135Z,11.50
2019-06-07T02:35:55.112Z,11.40
2019-06-07T02:38:23.148Z,11.30
2019-06-07T02:40:49.209Z,11.30
2019-06-07T02:43:15.275Z,11.20
2019-06-07T02:45:43.306Z,11.10
2019-06-07T02:48:09.346Z,11.10
2019-06-07T02:50:38.297Z,11.10
2019-06-07T02:53:03.417Z,11.10
2019-06-07T02:55:33.756Z,11.10
2019-06-07T02:57:57.480Z,11.00
2019-06-07T03:01:09.053Z,11.00
2019-06-07T03:03:16.204Z,11.00
2019-06-07T03:05:43.061Z,10.90
2019-06-07T03:08:11.358Z,10.90
2019-06-07T03:10:41.839Z,10.90
2019-06-07T03:13:10.240Z,10.90
2019-06-07T03:15:45.763Z,10.90
2019-06-07T03:18:06.528Z,10.90
2019-06-07T03:20:35.105Z,10.90
2019-06-07T03:23:05.413Z,10.90
2019-06-07T03:25:37.380Z,11.00
2019-06-07T03:28:05.233Z,10.90
2019-06-07T03:30:57.066Z,10.90
2019-06-07T03:32:59.380Z,10.90
2019-06-07T03:35:27.728Z,10.90
2019-06-07T03:37:53.560Z,10.90
2019-06-07T03:40:19.740Z,10.90
2019-06-07T03:42:45.822Z,10.90
2019-06-07T03:45:11.904Z,10.90
2019-06-07T03:47:41.834Z,10.90
2019-06-07T03:50:06.379Z,10.90
2019-06-07T03:52:35.636Z,10.90
2019-06-07T03:55:00.431Z,11.00
2019-06-07T03:57:28.726Z,11.00
2019-06-07T03:59:54.671Z,11.00
2019-06-07T04:02:20.747Z,11.10
2019-06-07T04:04:46.821Z,11.10
2019-06-07T04:07:12.901Z,11.20
2019-06-07T04:09:42.490Z,11.30
2019-06-07T04:12:06.947Z,11.10
2019-06-07T04:14:35.011Z,11.10
2019-06-07T04:17:00.980Z,11.10
2019-06-07T04:19:28.739Z,11.10
2019-06-07T04:21:55.037Z,11.30
2019-06-07T04:24:21.120Z,11.50
2019-06-07T04:26:47.183Z,11.50
2019-06-07T04:31:42.844Z,11.80
2019-06-07T04:34:09.246Z,11.80
2019-06-07T04:36:45.683Z,11.90
2019-06-07T04:39:05.848Z,11.90
2019-06-07T04:41:33.615Z,11.90
2019-06-07T04:44:00.741Z,12.00
2019-06-07T04:46:31.405Z,12.20
2019-06-07T04:49:01.222Z,12.20
2019-06-07T04:51:30.188Z,12.40
2019-06-07T04:53:56.476Z,12.40
2019-06-07T04:56:22.564Z,12.40
2019-06-07T04:58:48.636Z,12.50
2019-06-07T05:01:26.827Z,12.60
2019-06-07T05:03:44.233Z,12.70
2019-06-07T05:06:10.684Z,12.70
2019-06-07T05:08:40.584Z,12.60
2019-06-07T05:11:04.759Z,12.70
2019-06-07T05:13:35.240Z,12.80
2019-06-07T05:15:58.917Z,12.90
2019-06-07T05:18:25.007Z,12.90
2019-06-07T05:20:51.106Z,13.00
2019-06-07T05:23:59.854Z,13.10
2019-06-07T05:25:45.172Z,13.00
2019-06-07T05:28:11.246Z,13.20
2019-06-07T05:33:08.317Z,13.50
2019-06-07T05:35:35.671Z,13.70
2019-06-07T05:38:03.110Z,13.70
2019-06-07T05:40:46.110Z,13.70
2019-06-07T05:43:25.453Z,13.90
2019-06-07T05:45:51.646Z,14.00
2019-06-07T05:48:17.812Z,14.10
2019-06-07T05:50:55.414Z,14.20
2019-06-07T05:53:11.894Z,14.20
2019-06-07T05:55:41.628Z,14.40
2019-06-07T05:58:06.120Z,14.60
2019-06-07T06:00:34.776Z,14.70
2019-06-07T06:03:05.843Z,14.90
2019-06-07T06:05:34.317Z,15.10
2019-06-07T06:07:56.171Z,15.30
2019-06-07T06:10:22.236Z,15.40
2019-06-07T06:12:51.862Z,15.50
2019-06-07T06:15:16.403Z,15.70
2019-06-07T06:17:46.060Z,15.90
2019-06-07T06:20:10.993Z,16.00
2019-06-07T06:22:38.076Z,16.20
2019-06-07T06:30:06.293Z,16.60
2019-06-07T06:32:43.066Z,16.80
2019-06-07T06:35:00.329Z,16.70
2019-06-07T06:37:26.383Z,16.60
2019-06-07T06:39:52.450Z,16.80
2019-06-07T06:42:18.626Z,16.90
2019-06-07T06:44:47.129Z,17.10
2019-06-07T06:47:12.694Z,17.40
2019-06-07T06:49:40.394Z,17.70
2019-06-07T06:52:07.501Z,17.90
2019-06-07T06:54:40.937Z,17.90
2019-06-07T06:57:19.143Z,18.00
2019-06-07T06:59:39.421Z,18.00
2019-06-07T07:01:57.536Z,18.10
2019-06-07T07:04:23.811Z,18.30
2019-06-07T07:06:50.742Z,18.50
2019-06-07T07:09:19.573Z,18.60
2019-06-07T07:12:00.755Z,18.90
2019-06-07T07:14:13.693Z,18.90
2019-06-07T07:16:39.842Z,19.10
2019-06-07T07:19:05.916Z,19.10
2019-06-07T07:21:32.088Z,19.00
2019-06-07T07:24:21.714Z,19.20
2019-06-07T07:26:26.151Z,19.30
2019-06-07T07:28:57.259Z,19.30
2019-06-07T07:31:21.172Z,19.30
2019-06-07T07:36:37.649Z,19.50
2019-06-07T07:38:45.620Z,19.60
2019-06-07T07:41:15.658Z,19.70
2019-06-07T07:43:39.232Z,20.00
2019-06-07T07:46:28.065Z,20.20
2019-06-07T07:48:33.436Z,20.50
2019-06-07T07:51:01.223Z,20.50
2019-06-07T07:53:46.811Z,20.60
2019-06-07T07:56:00.157Z,20.70
2019-06-07T07:58:23.485Z,20.80
2019-06-07T08:00:54.876Z,20.90
2019-06-07T08:03:17.552Z,21.10
2019-06-07T08:05:45.649Z,21.30
2019-06-07T08:08:11.747Z,21.30
2019-06-07T08:10:37.825Z,21.50
2019-06-07T08:13:23.428Z,21.70
2019-06-07T08:15:32.374Z,21.70
2019-06-07T08:18:03.881Z,21.80
2019-06-07T08:20:26.475Z,21.80
2019-06-07T08:22:53.258Z,21.60
2019-06-07T08:25:20.643Z,21.70
2019-06-07T08:27:47.069Z,21.80
2019-06-07T08:30:47.025Z,22.00
2019-06-07T08:32:42.706Z,22.30
2019-06-07T08:35:09.388Z,22.40
2019-06-07T08:38:14.177Z,22.50
2019-06-07T08:40:05.927Z,22.20
2019-06-07T08:42:38.263Z,22.20
2019-06-07T08:45:04.500Z,22.30
2019-06-07T08:47:28.053Z,22.30
2019-06-07T08:49:59.609Z,22.50
2019-06-07T08:52:22.138Z,22.60
2019-06-07T08:54:48.316Z,22.60
2019-06-07T08:57:21.234Z,22.50
2019-06-07T08:59:42.593Z,22.50
2019-06-07T09:02:22.927Z,22.70
2019-06-07T09:04:36.719Z,22.80
2019-06-07T09:07:15.213Z,23.00
2019-06-07T09:09:31.216Z,23.20
2019-06-07T09:12:03.113Z,23.10
2019-06-07T09:14:25.448Z,23.30
2019-06-07T09:16:51.506Z,23.30
2019-06-07T09:19:17.564Z,23.40
2019-06-07T09:21:43.644Z,23.30
2019-06-07T09:24:11.668Z,24.00
2019-06-07T09:26:37.695Z,24.00
2019-06-07T09:29:08.372Z,24.00
2019-06-07T09:31:51.079Z,24.10
2019-06-07T09:34:04.664Z,23.90
2019-06-07T09:36:27.807Z,23.90
2019-06-07T09:38:53.988Z,24.20
2019-06-07T09:41:20.051Z,24.50
2019-06-07T09:44:01.929Z,24.70
2019-06-07T09:46:16.260Z,24.80
2019-06-07T09:51:19.118Z,24.80
2019-06-07T09:53:38.444Z,24.80
2019-06-07T09:56:08.668Z,25.00
2019-06-07T09:58:51.757Z,25.20
2019-06-07T10:01:05.888Z,25.30
2019-06-07T10:03:28.448Z,25.40
2019-06-07T10:05:54.555Z,25.60
2019-06-07T10:09:31.614Z,25.40
2019-06-07T10:10:48.706Z,25.50
2019-06-07T10:13:14.847Z,25.60
2019-06-07T10:15:40.909Z,25.60
2019-06-07T10:18:07.157Z,25.80
2019-06-07T10:20:33.263Z,25.90
2019-06-07T10:22:59.637Z,26.10
2019-06-07T10:25:25.807Z,26.10
2019-06-07T10:27:51.875Z,26.00
2019-06-07T10:30:18.479Z,26.40
2019-06-07T10:32:44.623Z,26.40
2019-06-07T10:35:15.370Z,26.40
2019-06-07T10:37:38.867Z,26.50
2019-06-07T10:40:09.324Z,26.60
2019-06-07T10:42:35.533Z,26.60
2019-06-07T10:45:03.024Z,26.70
2019-06-07T10:47:29.938Z,27.00
2019-06-07T10:49:56.013Z,27.20
2019-06-07T10:52:22.080Z,27.50
2019-06-07T10:54:48.165Z,27.50
2019-06-07T10:57:16.042Z,27.30
2019-06-07T10:59:42.233Z,27.10
2019-06-07T11:02:09.646Z,27.20
2019-06-07T11:04:36.056Z,27.40
2019-06-07T11:07:02.307Z,27.50
2019-06-07T11:09:29.312Z,27.70
2019-06-07T11:11:55.375Z,27.90
2019-06-07T11:14:21.451Z,27.90
2019-06-07T11:16:47.536Z,28.10
2019-06-07T11:19:17.282Z,27.90
2019-06-07T11:21:41.667Z,27.70
2019-06-07T11:24:08.066Z,27.60
2019-06-07T11:26:34.311Z,27.60
2019-06-07T11:29:00.419Z,27.70
2019-06-07T11:31:26.487Z,27.70
2019-06-07T11:33:52.668Z,27.60
2019-06-07T11:36:18.967Z,27.80
2019-06-07T11:38:45.075Z,27.90
2019-06-07T11:41:11.597Z,28.20
2019-06-07T11:43:37.845Z,28.40
2019-06-07T11:46:04.035Z,28.30
2019-06-07T11:48:30.111Z,28.10
2019-06-07T11:50:56.173Z,28.00
2019-06-07T11:53:22.277Z,28.10
2019-06-07T11:55:48.382Z,28.20
2019-06-07T11:58:19.006Z,28.40
2019-06-07T12:00:42.503Z,28.60
2019-06-07T12:03:09.468Z,28.70
2019-06-07T12:05:35.756Z,29.00
2019-06-07T12:08:01.919Z,29.10
2019-06-07T12:10:41.813Z,29.00
2019-06-07T12:12:55.999Z,29.40
2019-06-07T12:15:22.093Z,29.40
2019-06-07T12:17:48.163Z,29.00
2019-06-07T12:20:16.739Z,29.10
2019-06-07T12:22:42.912Z,29.40
2019-06-07T12:25:10.425Z,29.40
2019-06-07T12:27:36.784Z,29.50
2019-06-07T12:30:11.177Z,29.60
2019-06-07T12:32:34.680Z,30.10
2019-06-07T12:35:00.777Z,30.80
2019-06-07T12:37:42.644Z,31.50
2019-06-07T12:39:54.912Z,32.40
2019-06-07T12:42:21.010Z,33.00
2019-06-07T12:44:47.076Z,33.40
2019-06-07T12:47:13.199Z,34.30
2019-06-07T12:49:39.267Z,35.20
2019-06-07T12:52:05.423Z,35.80
2019-06-07T12:54:32.008Z,36.00
2019-06-07T12:56:58.172Z,36.50
2019-06-07T12:59:24.402Z,36.80
2019-06-07T13:01:50.518Z,37.00
2019-06-07T13:04:16.588Z,37.00
2019-06-07T13:06:42.663Z,37.20
2019-06-07T13:09:08.729Z,37.50
2019-06-07T13:11:34.799Z,37.80
2019-06-07T13:14:00.868Z,38.60
2019-06-07T13:16:28.335Z,38.70
2019-06-07T13:18:54.637Z,38.10
2019-06-07T13:21:20.695Z,38.10
2019-06-07T13:23:46.776Z,38.60
2019-06-07T13:26:12.836Z,39.20
2019-06-07T13:28:38.904Z,39.20
2019-06-07T13:31:04.970Z,39.50
2019-06-07T13:33:37.364Z,39.40
2019-06-07T13:35:59.028Z,39.60
2019-06-07T13:38:25.794Z,39.70
2019-06-07T13:40:53.424Z,39.80
2019-06-07T13:43:19.484Z,39.90
2019-06-07T13:45:45.563Z,39.60
2019-06-07T13:48:11.642Z,39.30
2019-06-07T13:50:37.792Z,39.10
2019-06-07T13:53:03.870Z,39.10
2019-06-07T13:55:29.938Z,39.10
2019-06-07T13:57:56.029Z,39.60
2019-06-07T14:00:24.884Z,39.80
2019-06-07T14:02:51.055Z,40.00
2019-06-07T14:05:18.636Z,39.80
2019-06-07T14:07:44.911Z,39.60
2019-06-07T14:10:13.097Z,39.80
2019-06-07T14:12:39.156Z,40.40
2019-06-07T14:15:05.836Z,40.50
2019-06-07T14:17:32.589Z,40.90
2019-06-07T14:19:58.792Z,40.80
2019-06-07T14:22:24.853Z,41.20
2019-06-07T14:24:51.048Z,41.00
2019-06-07T14:27:17.222Z,41.30
2019-06-07T14:29:43.280Z,41.80
2019-06-07T14:32:09.365Z,42.00
2019-06-07T14:34:35.720Z,42.20
2019-06-07T14:37:01.879Z,42.30
2019-06-07T14:39:29.595Z,42.20
2019-06-07T14:42:08.494Z,42.10
2019-06-07T14:44:26.095Z,42.10
2019-06-07T14:46:51.983Z,42.10
2019-06-07T14:49:18.052Z,42.40
2019-06-07T14:51:44.121Z,41.80
2019-06-07T14:54:10.221Z,41.80
2019-06-07T14:56:36.291Z,41.90
2019-06-07T14:59:02.355Z,42.20
2019-06-07T15:01:28.614Z,42.10
2019-06-07T15:03:54.705Z,42.00
2019-06-07T15:06:20.853Z,41.80
2019-06-07T15:08:46.995Z,42.10
2019-06-07T15:11:13.078Z,42.00
2019-06-07T15:13:39.893Z,42.60
2019-06-07T15:16:06.217Z,43.10
2019-06-07T15:18:33.754Z,43.40
2019-06-07T15:20:59.944Z,43.10
2019-06-07T15:23:27.052Z,43.30
2019-06-07T15:25:53.317Z,42.80
2019-06-07T15:28:19.408Z,43.30
2019-06-07T15:30:45.497Z,43.50
2019-06-07T15:33:11.624Z,43.40
2019-06-07T15:35:39.032Z,43.50
2019-06-07T15:38:05.382Z,43.00
2019-06-07T15:40:33.087Z,42.70
2019-06-07T15:42:59.349Z,42.20
2019-06-07T15:45:25.412Z,42.00
2019-06-07T15:47:51.491Z,42.00
2019-06-07T15:50:17.948Z,41.90
2019-06-07T15:52:44.020Z,42.00
2019-06-07T15:55:10.798Z,42.00
2019-06-07T15:57:37.345Z,42.00
2019-06-07T16:00:10.132Z,41.60
2019-06-07T16:02:37.491Z,41.50
2019-06-07T16:05:04.559Z,41.60
2019-06-07T16:07:31.930Z,41.80
2019-06-07T16:09:58.205Z,42.10
2019-06-07T16:12:24.314Z,42.50
2019-06-07T16:14:50.467Z,42.00
2019-06-07T16:17:16.540Z,42.00
2019-06-07T16:19:46.224Z,42.10
2019-06-07T16:22:10.715Z,41.70
2019-06-07T16:24:37.677Z,41.00
2019-06-07T16:27:03.953Z,40.70
2019-06-07T16:29:30.033Z,40.70
2019-06-07T16:31:56.291Z,41.00
2019-06-07T16:34:22.401Z,40.70
2019-06-07T16:36:48.826Z,41.00
2019-06-07T16:39:15.145Z,41.00
2019-06-07T16:41:42.718Z,40.80
2019-06-07T16:44:09.025Z,40.60
2019-06-07T16:46:36.588Z,40.40
2019-06-07T16:49:02.996Z,40.60
2019-06-07T16:51:29.066Z,40.30
2019-06-07T16:53:55.163Z,40.00
2019-06-07T16:56:21.324Z,39.50
2019-06-07T16:58:48.683Z,39.60
2019-06-07T17:01:14.995Z,39.40
2019-06-07T17:03:41.490Z,39.40
2019-06-07T17:06:07.744Z,38.80
2019-06-07T17:08:33.808Z,38.00
2019-06-07T17:10:59.893Z,36.50
2019-06-07T17:13:33.320Z,35.60
2019-06-07T17:15:53.939Z,34.60
2019-06-07T17:18:20.006Z,33.30
2019-06-07T17:20:47.379Z,32.30
2019-06-07T17:23:13.593Z,31.50
2019-06-07T17:25:39.681Z,30.70
2019-06-07T17:28:05.759Z,30.20
2019-06-07T17:30:31.831Z,29.80
2019-06-07T17:32:59.621Z,29.30
2019-06-07T17:35:25.883Z,29.00
2019-06-07T17:37:51.943Z,28.80
2019-06-07T17:40:19.334Z,28.70
2019-06-07T17:42:45.400Z,28.60
2019-06-07T17:45:13.483Z,28.40
2019-06-07T17:47:39.546Z,28.20
2019-06-07T17:50:06.820Z,28.30
2019-06-07T17:52:32.899Z,28.20
2019-06-07T17:54:58.955Z,27.90
2019-06-07T17:57:25.045Z,27.50
2019-06-07T17:59:51.103Z,27.50
2019-06-07T18:02:17.171Z,27.50
2019-06-07T18:04:43.247Z,27.60
2019-06-07T18:07:10.011Z,27.30
2019-06-07T18:09:37.603Z,27.20
2019-06-07T18:12:03.755Z,27.20
2019-06-07T18:14:29.826Z,27.20
2019-06-07T18:16:55.895Z,27.20
2019-06-07T18:19:21.979Z,27.00
2019-06-07T18:21:49.782Z,26.90
2019-06-07T18:24:16.009Z,26.90
2019-06-07T18:26:42.083Z,26.80
2019-06-07T18:29:08.144Z,26.60
2019-06-07T18:31:34.222Z,26.50
2019-06-07T18:34:01.772Z,26.50
2019-06-07T18:36:27.851Z,26.30
2019-06-07T18:38:55.065Z,26.20
2019-06-07T18:41:21.283Z,26.10
2019-06-07T18:43:47.364Z,26.00
2019-06-07T18:46:13.532Z,26.00
2019-06-07T18:48:39.616Z,25.80
2019-06-07T18:51:05.783Z,25.70
2019-06-07T18:53:31.863Z,25.60
2019-06-07T18:55:58.150Z,25.50
2019-06-07T18:58:24.395Z,25.30
2019-06-07T19:00:51.409Z,25.10
2019-06-07T19:03:17.635Z,24.80
2019-06-07T19:05:43.728Z,24.60
2019-06-07T19:08:09.792Z,24.40
2019-06-07T19:10:35.867Z,24.20
2019-06-07T19:13:01.939Z,24.00
2019-06-07T19:15:28.403Z,23.90
2019-06-07T19:17:54.472Z,23.80
2019-06-07T19:20:20.831Z,23.80
2019-06-07T19:22:47.007Z,23.60
2019-06-07T19:25:13.762Z,23.40
2019-06-07T19:27:39.823Z,23.30
2019-06-07T19:30:06.686Z,23.10
2019-06-07T19:32:32.739Z,22.70
2019-06-07T19:34:59.433Z,22.40
2019-06-07T19:37:25.583Z,22.30
2019-06-07T19:39:51.769Z,21.90
2019-06-07T19:42:17.848Z,21.90
2019-06-07T19:44:53.067Z,22.00
2019-06-07T19:47:11.923Z,21.90
2019-06-07T19:49:37.984Z,22.00
2019-06-07T19:52:04.075Z,22.10
2019-06-07T19:54:30.139Z,21.90
2019-06-07T19:56:57.388Z,22.00
2019-06-07T19:59:23.596Z,22.20
2019-06-07T20:01:49.788Z,22.30
2019-06-07T20:04:15.940Z,22.50
2019-06-07T20:06:42.004Z,22.60
2019-06-07T20:09:08.084Z,22.60
2019-06-07T20:11:34.244Z,22.60
2019-06-07T20:14:00.772Z,22.60
2019-06-07T20:16:27.008Z,22.50
2019-06-07T20:18:53.091Z,22.50
2019-06-07T20:21:19.201Z,22.40
2019-06-07T20:23:45.327Z,22.40
2019-06-07T20:26:11.413Z,22.30
2019-06-07T20:28:37.476Z,22.20
2019-06-07T20:31:03.989Z,22.10
2019-06-07T20:33:30.227Z,22.20
2019-06-07T20:35:56.620Z,22.00
2019-06-07T20:38:23.705Z,22.00
2019-06-07T20:40:49.787Z,21.90
2019-06-07T20:43:15.868Z,21.90
2019-06-07T20:45:41.931Z,22.10
2019-06-07T20:48:08.482Z,21.90
2019-06-07T20:50:34.717Z,21.90
2019-06-07T20:53:01.360Z,21.90
2019-06-07T20:55:28.847Z,21.80
2019-06-07T20:57:54.926Z,21.70
2019-06-07T21:00:22.441Z,21.70
2019-06-07T21:02:48.754Z,21.50
2019-06-07T21:05:14.922Z,21.40
2019-06-07T21:07:41.008Z,21.30
2019-06-07T21:10:08.271Z,21.00
2019-06-07T21:12:34.647Z,20.80
2019-06-07T21:15:05.214Z,20.40
2019-06-07T21:17:28.702Z,19.80
2019-06-07T21:19:54.752Z,19.40
2019-06-07T21:22:20.853Z,18.90
2019-06-07T21:24:46.903Z,18.70
2019-06-07T21:27:12.979Z,18.30
2019-06-07T21:29:39.059Z,18.00
2019-06-07T21:32:05.460Z,17.70
2019-06-07T21:34:31.703Z,17.30
2019-06-07T21:36:57.753Z,17.20
2019-06-07T21:39:23.848Z,16.90
2019-06-07T21:41:49.913Z,16.80
2019-06-07T21:44:15.984Z,16.60
2019-06-07T21:46:42.048Z,16.50
2019-06-07T21:49:08.506Z,16.40
2019-06-07T21:51:34.695Z,16.10
2019-06-07T21:54:00.948Z,16.00
2019-06-07T21:56:27.039Z,15.90
2019-06-07T21:58:53.196Z,15.70
2019-06-07T22:01:20.475Z,15.50
2019-06-07T22:03:46.546Z,15.40
2019-06-07T22:06:13.749Z,15.20
2019-06-07T22:08:39.997Z,15.20
2019-06-07T22:11:06.192Z,15.10
2019-06-07T22:13:32.483Z,15.00
2019-06-07T22:15:58.541Z,14.90
2019-06-07T22:18:24.632Z,14.80
2019-06-07T22:20:50.707Z,14.80
2019-06-07T22:23:16.772Z,14.80
2019-06-07T22:25:42.849Z,14.80
2019-06-07T22:28:10.131Z,14.80
2019-06-07T22:30:36.350Z,14.70
2019-06-07T22:33:02.511Z,14.70
2019-06-07T22:35:28.570Z,14.60
2019-06-07T22:37:54.642Z,14.50
2019-06-07T22:40:20.719Z,14.60
2019-06-07T22:42:46.994Z,14.60
2019-06-07T22:45:14.594Z,14.70
2019-06-07T22:47:40.839Z,14.70
2019-06-07T22:50:10.617Z,14.70
2019-06-07T22:52:39.389Z,14.70
2019-06-07T22:55:07.691Z,14.70
2019-06-07T22:57:52.159Z,14.70
2019-06-07T23:00:20.744Z,14.70
2019-06-07T23:02:46.235Z,14.70
2019-06-07T23:05:12.751Z,14.80
2019-06-07T23:07:38.974Z,14.80
2019-06-07T23:10:05.381Z,14.80
2019-06-07T23:12:31.444Z,14.80
2019-06-07T23:14:57.531Z,14.90
2019-06-07T23:17:23.608Z,14.70
2019-06-07T23:19:49.678Z,14.70
2019-06-07T23:22:16.124Z,14.70
2019-06-07T23:24:42.311Z,14.80
2019-06-07T23:27:08.408Z,14.80
2019-06-07T23:29:34.563Z,14.70
2019-06-07T23:32:00.627Z,14.70
2019-06-07T23:34:26.721Z,14.70
2019-06-07T23:36:52.887Z,14.70
2019-06-07T23:39:21.959Z,14.80
2019-06-07T23:41:47.071Z,14.80
2019-06-07T23:44:13.378Z,14.80
2019-06-07T23:46:39.502Z,14.90
2019-06-07T23:49:05.566Z,14.90
2019-06-07T23:51:31.705Z,14.90
2019-06-07T23:53:58.033Z,14.80
2019-06-07T23:56:24.103Z,14.70
2019-06-07T23:58:50.183Z,14.60
